Time;durP1;ratioP1;P1;durP2;ratioP2;P2;SDS_P1;SDS_P2;PMS_P1;PMS_P2;Temp;Humidity;BMP_temperature;BMP_pressure;BME280_temperature;BME280_humidity;BME280_pressure;Samples;Min_cycle;Max_cycle;Signal;HPM_P1;HPM_P2
2021/07/17 00:00:11;;;;;;;;;;;;;;;20.66;79.48;100937.59;1644905;84;20479;-84
2021/07/17 00:02:37;;;;;;;;;;;;;;;20.66;79.50;100934.50;1657457;84;20209;-84
2021/07/17 00:05:06;;;;;;;;;;;;;;;20.70;79.61;100937.81;1657902;84;20460;-84
2021/07/17 00:07:32;;;;;;;;;;;;;;;20.71;79.67;100932.48;1655260;84;20184;-84
2021/07/17 00:09:58;;;;;;;;;;;;;;;20.72;79.61;100930.23;1654871;84;20510;-84
2021/07/17 00:12:24;;;;;;;;;;;;;;;20.71;79.61;100928.53;1646908;84;20198;-84
2021/07/17 00:14:50;;;;;;;;;;;;;;;20.73;79.62;100928.45;1649729;84;20795;-84
2021/07/17 00:17:16;;;;;;;;;;;;;;;20.72;79.64;100929.38;1657893;84;20266;-84
2021/07/17 00:19:42;;;;;;;;;;;;;;;20.71;79.66;100924.59;1650699;84;20823;-84
2021/07/17 00:22:08;;;;;;;;;;;;;;;20.70;79.64;100926.84;1655000;84;20472;-84
2021/07/17 00:24:34;;;;;;;;;;;;;;;20.70;79.70;100927.30;1642891;84;20237;-84
2021/07/17 00:27:00;;;;;;;;;;;;;;;20.69;79.67;100926.92;1675658;84;20801;-83
2021/07/17 00:29:27;;;;;;;;;;;;;;;20.69;79.71;100931.70;1657133;84;20523;-83
2021/07/17 00:31:54;;;;;;;;;;;;;;;20.70;79.79;100924.67;1653821;84;20287;-83
2021/07/17 00:34:20;;;;;;;;;;;;;;;20.70;79.73;100925.52;1649543;84;20465;-83
2021/07/17 00:36:46;;;;;;;;;;;;;;;20.68;79.76;100918.19;1648706;84;20190;-83
2021/07/17 00:39:12;;;;;;;;;;;;;;;20.69;79.79;100919.03;1646521;84;20495;-83
2021/07/17 00:41:38;;;;;;;;;;;;;;;20.69;79.80;100915.09;1655031;84;20178;-83
2021/07/17 00:44:07;;;;;;;;;;;;;;;20.68;79.80;100922.13;1652555;84;20799;-83
2021/07/17 00:46:34;;;;;;;;;;;;;;;20.69;79.87;100919.88;1618130;87;20497;-84
2021/07/17 00:49:00;;;;;;;;;;;;;;;20.70;79.87;100917.64;1614204;87;20187;-84
2021/07/17 00:51:27;;;;;;;;;;;;;;;20.71;79.94;100916.70;1620341;87;20441;-84
2021/07/17 00:53:54;;;;;;;;;;;;;;;20.73;79.95;100912.69;1611582;87;20509;-84
2021/07/17 00:56:21;;;;;;;;;;;;;;;20.72;79.93;100908.36;1616698;87;20446;-84
2021/07/17 00:58:47;;;;;;;;;;;;;;;20.72;79.93;100906.58;1597137;88;20477;-84
2021/07/17 01:01:13;;;;;;;;;;;;;;;20.71;79.87;100904.03;1628432;87;20177;-84
2021/07/17 01:03:40;;;;;;;;;;;;;;;20.71;79.98;100907.97;1623403;87;20296;-84
2021/07/17 01:06:06;;;;;;;;;;;;;;;20.71;79.96;100902.72;1614138;87;20160;-84
2021/07/17 01:08:32;;;;;;;;;;;;;;;20.70;79.98;100901.87;1623784;87;20519;-84
2021/07/17 01:10:58;;;;;;;;;;;;;;;20.71;80.02;100896.15;1616202;87;20212;-84
2021/07/17 01:13:24;;;;;;;;;;;;;;;20.69;79.88;100900.17;1615914;87;20539;-84
2021/07/17 01:15:50;;;;;;;;;;;;;;;20.68;80.00;100894.53;1615547;87;20220;-84
2021/07/17 01:18:16;;;;;;;;;;;;;;;20.68;79.94;100885.80;1596983;88;20583;-83
2021/07/17 01:20:43;;;;;;;;;;;;;;;20.68;80.10;100890.59;1614409;87;20208;-83
2021/07/17 01:23:09;;;;;;;;;;;;;;;20.67;80.09;100887.58;1616640;87;20135;-83
2021/07/17 01:25:35;;;;;;;;;;;;;;;20.68;80.05;100888.43;1613299;87;20409;-83
2021/07/17 01:28:02;;;;;;;;;;;;;;;20.67;80.12;100890.20;1619039;87;20139;-84
2021/07/17 01:30:31;;;;;;;;;;;;;;;20.67;80.17;100887.58;1618940;87;20425;-84
2021/07/17 01:32:58;;;;;;;;;;;;;;;20.69;80.23;100890.97;1619042;87;20417;-84
2021/07/17 01:35:24;;;;;;;;;;;;;;;20.69;80.11;100891.44;1614820;87;20422;-84
2021/07/17 01:37:50;;;;;;;;;;;;;;;20.69;80.19;100884.87;1617909;87;20197;-84
2021/07/17 01:40:20;;;;;;;;;;;;;;;20.69;80.16;100891.44;1619151;87;20105;-84
2021/07/17 01:42:47;;;;;;;;;;;;;;;20.62;80.03;100889.60;1614840;87;20141;-84
2021/07/17 01:45:26;;;;;;;;;;;;;;;20.64;80.24;100894.78;1616646;87;20537;-84
2021/07/17 01:47:52;;;;;;;;;;;;;;;20.65;80.13;100892.53;1616343;88;20144;-84
2021/07/17 01:50:18;;;;;;;;;;;;;;;20.62;80.22;100896.17;1612610;87;20136;-84
2021/07/17 01:52:50;;;;;;;;;;;;;;;20.64;80.31;100894.78;1631445;86;20161;-84
2021/07/17 01:55:16;;;;;;;;;;;;;;;20.66;80.33;100894.23;1618821;87;20146;-84
2021/07/17 01:57:43;;;;;;;;;;;;;;;20.67;80.35;100892.84;1630027;87;20113;-84
2021/07/17 02:00:10;;;;;;;;;;;;;;;20.67;80.27;100890.67;1635793;87;20452;-84
2021/07/17 02:02:36;;;;;;;;;;;;;;;20.68;80.35;100898.48;1625667;87;20115;-84
2021/07/17 02:05:07;;;;;;;;;;;;;;;20.65;80.27;100893.84;1618220;87;20093;-84
2021/07/17 02:07:33;;;;;;;;;;;;;;;20.65;80.35;100889.91;1622879;87;20430;-84
2021/07/17 02:10:00;;;;;;;;;;;;;;;20.67;80.38;100891.98;1609417;87;20149;-84
2021/07/17 02:12:26;;;;;;;;;;;;;;;20.69;80.42;100887.50;1612879;87;20155;-84
2021/07/17 02:14:52;;;;;;;;;;;;;;;20.69;80.37;100890.13;1620866;87;20692;-84
2021/07/17 02:17:19;;;;;;;;;;;;;;;20.68;80.38;100889.74;1604877;87;20167;-84
2021/07/17 02:19:45;;;;;;;;;;;;;;;20.68;80.43;100890.59;1614388;87;20091;-84
2021/07/17 02:22:11;;;;;;;;;;;;;;;20.68;80.40;100885.34;1615808;87;20211;-84
2021/07/17 02:24:37;;;;;;;;;;;;;;;20.68;80.41;100884.48;1623005;87;20159;-83
2021/07/17 02:27:03;;;;;;;;;;;;;;;20.69;80.49;100884.87;1609540;87;20139;-84
2021/07/17 02:29:29;;;;;;;;;;;;;;;20.70;80.51;100881.31;1633371;87;20117;-84
2021/07/17 02:31:55;;;;;;;;;;;;;;;20.68;80.45;100880.08;1622305;87;20220;-84
2021/07/17 02:34:21;;;;;;;;;;;;;;;20.68;80.48;100878.77;1617863;87;20449;-84
2021/07/17 02:36:47;;;;;;;;;;;;;;;20.70;80.47;100881.31;1627796;87;20114;-84
2021/07/17 02:39:14;;;;;;;;;;;;;;;20.68;80.43;100876.61;1616447;85;20116;-84
2021/07/17 02:41:40;;;;;;;;;;;;;;;20.67;80.48;100881.48;1622239;87;20109;-83
2021/07/17 02:44:06;;;;;;;;;;;;;;;20.67;80.53;100882.79;1616484;87;20117;-84
2021/07/17 02:46:32;;;;;;;;;;;;;;;20.66;80.48;100879.78;1622987;87;20101;-84
2021/07/17 02:48:58;;;;;;;;;;;;;;;20.65;80.59;100875.45;1618893;87;20098;-84
2021/07/17 02:51:25;;;;;;;;;;;;;;;20.67;80.65;100880.16;1629948;86;20107;-83
2021/07/17 02:53:51;;;;;;;;;;;;;;;20.67;80.59;100879.70;1642873;86;20464;-83
2021/07/17 02:56:17;;;;;;;;;;;;;;;20.65;80.53;100881.56;1649401;85;20424;-83
2021/07/17 02:58:43;;;;;;;;;;;;;;;20.63;80.57;100884.73;1654501;85;20434;-84
2021/07/17 03:01:09;;;;;;;;;;;;;;;20.62;80.65;100882.19;1651934;85;20670;-84
2021/07/17 03:03:35;;;;;;;;;;;;;;;20.61;80.67;100881.80;1639363;85;20103;-84
2021/07/17 03:06:01;;;;;;;;;;;;;;;20.57;80.65;100879.80;1647133;85;20159;-84
2021/07/17 03:08:27;;;;;;;;;;;;;;;20.55;80.81;100880.34;1669359;85;20119;-84
2021/07/17 03:10:54;;;;;;;;;;;;;;;20.55;80.77;100880.34;1648918;85;20186;-84
2021/07/17 03:13:21;;;;;;;;;;;;;;;20.54;80.81;100883.91;1647065;85;20097;-84
2021/07/17 03:15:49;;;;;;;;;;;;;;;20.55;80.80;100880.34;1660339;85;20132;-84
2021/07/17 03:18:16;;;;;;;;;;;;;;;20.56;80.88;100879.42;1661354;85;20138;-84
2021/07/17 03:20:44;;;;;;;;;;;;;;;20.56;80.85;100887.30;1648684;85;20427;-84
2021/07/17 03:23:10;;;;;;;;;;;;;;;20.56;80.88;100881.20;1644652;86;20113;-84
2021/07/17 03:25:37;;;;;;;;;;;;;;;20.58;80.93;100880.19;1641951;86;20127;-84
2021/07/17 03:28:03;;;;;;;;;;;;;;;20.59;80.93;100880.57;1656262;85;20143;-84
2021/07/17 03:30:29;;;;;;;;;;;;;;;20.60;80.92;100875.70;1658353;85;20183;-84
2021/07/17 03:32:55;;;;;;;;;;;;;;;20.61;80.94;100875.23;1656545;85;20343;-84
2021/07/17 03:35:21;;;;;;;;;;;;;;;20.61;80.93;100874.77;1646578;85;20130;-84
2021/07/17 03:37:47;;;;;;;;;;;;;;;20.63;80.96;100883.88;1651804;85;20141;-84
2021/07/17 03:40:14;;;;;;;;;;;;;;;20.65;80.99;100892.07;1634321;86;39377;-84
2021/07/17 03:42:40;;;;;;;;;;;;;;;20.68;80.96;100891.06;1653981;85;20089;-84
2021/07/17 03:45:07;;;;;;;;;;;;;;;20.67;80.96;100893.30;1655955;85;21112;-84
2021/07/17 03:47:33;;;;;;;;;;;;;;;20.69;81.02;100900.17;1657162;85;20121;-84
2021/07/17 03:49:59;;;;;;;;;;;;;;;20.71;81.06;100894.37;1653799;85;20163;-83
2021/07/17 03:52:25;;;;;;;;;;;;;;;20.73;81.03;100899.08;1653005;85;20112;-83
2021/07/17 03:54:51;;;;;;;;;;;;;;;20.76;81.08;100901.55;1654126;84;20105;-84
2021/07/17 03:57:18;;;;;;;;;;;;;;;20.77;81.02;100895.36;1655083;84;20121;-84
2021/07/17 03:59:47;;;;;;;;;;;;;;;20.79;81.01;100892.64;1655055;84;20113;-84
2021/07/17 04:02:13;;;;;;;;;;;;;;;20.79;81.02;100901.37;1644986;84;20091;-84
2021/07/17 04:04:41;;;;;;;;;;;;;;;20.81;81.00;100897.33;1654759;84;20156;-84
2021/07/17 04:07:08;;;;;;;;;;;;;;;20.83;81.02;100899.41;1640846;86;20108;-84
2021/07/17 04:09:34;;;;;;;;;;;;;;;20.84;81.05;100901.10;1627766;86;21030;-84
2021/07/17 04:12:00;;;;;;;;;;;;;;;20.86;81.03;100895.30;1656804;84;20108;-84
2021/07/17 04:14:26;;;;;;;;;;;;;;;20.87;81.06;100895.68;1651401;86;20177;-84
2021/07/17 04:16:52;;;;;;;;;;;;;;;20.90;81.10;100899.45;1655477;84;20428;-84
2021/07/17 04:19:18;;;;;;;;;;;;;;;20.93;81.13;100897.13;1657477;84;20179;-84
2021/07/17 04:21:44;;;;;;;;;;;;;;;20.95;81.12;100910.57;1657043;84;20155;-84
2021/07/17 04:24:10;;;;;;;;;;;;;;;20.96;81.02;100905.70;1652241;84;20128;-84
2021/07/17 04:26:36;;;;;;;;;;;;;;;20.97;81.03;100904.77;1668379;84;20179;-84
2021/07/17 04:29:02;;;;;;;;;;;;;;;20.98;81.05;100902.52;1656295;84;20424;-84
2021/07/17 04:31:28;;;;;;;;;;;;;;;21.00;81.11;100905.06;1662333;84;20274;-84
2021/07/17 04:33:54;;;;;;;;;;;;;;;21.04;81.17;100906.59;1667364;84;20159;-84
2021/07/17 04:36:20;;;;;;;;;;;;;;;21.09;81.19;100905.41;1656754;84;20109;-84
2021/07/17 04:38:46;;;;;;;;;;;;;;;21.11;81.18;100906.17;1656746;84;20187;-84
2021/07/17 04:41:12;;;;;;;;;;;;;;;21.14;81.18;100901.22;1670729;84;20556;-84
2021/07/17 04:43:38;;;;;;;;;;;;;;;21.18;81.09;100907.16;1652961;84;20167;-84
2021/07/17 04:46:04;;;;;;;;;;;;;;;21.19;81.15;100904.91;1649452;84;20176;-84
2021/07/17 04:48:30;;;;;;;;;;;;;;;21.22;81.16;100907.40;1666736;84;20193;-84
2021/07/17 04:50:56;;;;;;;;;;;;;;;21.18;80.98;100912.41;1680612;84;20130;-84
2021/07/17 04:53:22;;;;;;;;;;;;;;;21.16;81.04;100919.07;1650194;84;20134;-84
2021/07/17 04:55:49;;;;;;;;;;;;;;;21.19;81.17;100925.48;1642656;85;20406;-84
2021/07/17 04:58:15;;;;;;;;;;;;;;;21.20;81.12;100921.06;1656638;85;20148;-84
2021/07/17 05:00:41;;;;;;;;;;;;;;;21.20;81.15;100918.44;1652696;85;209522;-84
2021/07/17 05:03:07;;;;;;;;;;;;;;;21.22;81.23;100924.03;1628493;86;20226;-83
2021/07/17 05:05:33;;;;;;;;;;;;;;;21.25;81.15;100924.33;1632421;86;20104;-83
2021/07/17 05:07:59;;;;;;;;;;;;;;;21.25;81.12;100920.38;1652848;85;20156;-84
2021/07/17 05:10:26;;;;;;;;;;;;;;;21.22;81.01;100920.08;1647604;85;20219;-84
2021/07/17 05:12:52;;;;;;;;;;;;;;;21.22;81.17;100922.72;1625703;86;20168;-84
2021/07/17 05:15:19;;;;;;;;;;;;;;;21.26;81.26;100926.88;1646337;85;20134;-84
2021/07/17 05:17:45;;;;;;;;;;;;;;;21.31;81.18;100927.93;1630954;86;20133;-84
2021/07/17 05:20:12;;;;;;;;;;;;;;;21.32;81.16;100926.97;1639376;85;20100;-84
2021/07/17 05:22:38;;;;;;;;;;;;;;;21.35;81.17;100918.91;1632781;86;20152;-84
2021/07/17 05:25:07;;;;;;;;;;;;;;;21.40;81.32;100920.81;1654339;85;20136;-84
2021/07/17 05:27:33;;;;;;;;;;;;;;;21.46;81.28;100917.38;1626347;86;20108;-84
2021/07/17 05:29:59;;;;;;;;;;;;;;;21.48;81.21;100922.08;1654197;85;20102;-83
2021/07/17 05:32:25;;;;;;;;;;;;;;;21.50;81.21;100923.77;1652480;85;20186;-83
2021/07/17 05:34:51;;;;;;;;;;;;;;;21.51;81.26;100921.05;1646135;85;20431;-83
2021/07/17 05:37:17;;;;;;;;;;;;;;;21.52;81.13;100928.02;1647285;85;20136;-83
2021/07/17 05:39:43;;;;;;;;;;;;;;;21.51;81.16;100926.32;1630206;86;20539;-83
2021/07/17 05:42:09;;;;;;;;;;;;;;;21.52;81.23;100920.12;1648120;85;20140;-83
2021/07/17 05:44:36;;;;;;;;;;;;;;;21.52;81.16;100927.17;1633422;86;20133;-83
2021/07/17 05:47:02;;;;;;;;;;;;;;;21.52;81.07;100929.33;1618444;87;20240;-83
2021/07/17 05:49:28;;;;;;;;;;;;;;;21.50;81.20;100931.20;1627823;86;20108;-83
2021/07/17 05:51:53;;;;;;;;;;;;;;;21.53;81.23;100931.50;1655103;85;20172;-83
2021/07/17 05:54:20;;;;;;;;;;;;;;;21.56;81.17;100927.38;1659288;84;20200;-83
2021/07/17 05:56:46;;;;;;;;;;;;;;;21.56;81.20;100936.13;1673833;84;20091;-83
2021/07/17 05:59:12;;;;;;;;;;;;;;;21.58;81.21;100936.88;1672017;84;20169;-84
2021/07/17 06:01:38;;;;;;;;;;;;;;;21.59;81.14;100939.05;1659962;84;20895;-83
2021/07/17 06:04:05;;;;;;;;;;;;;;;21.59;81.23;100941.21;1661105;84;20245;-83
2021/07/17 06:06:32;;;;;;;;;;;;;;;21.62;81.26;100946.77;1627518;86;20479;-83
2021/07/17 06:08:58;;;;;;;;;;;;;;;21.60;81.12;100946.01;1661101;84;20516;-83
2021/07/17 06:11:24;;;;;;;;;;;;;;;21.59;81.11;100949.58;1625575;86;20110;-83
2021/07/17 06:13:50;;;;;;;;;;;;;;;21.59;81.21;100943.00;1663919;84;20167;-83
2021/07/17 06:16:16;;;;;;;;;;;;;;;21.62;81.28;100953.34;1665052;84;20109;-83
2021/07/17 06:18:42;;;;;;;;;;;;;;;21.64;81.32;100954.11;1667942;84;20208;-83
2021/07/17 06:21:08;;;;;;;;;;;;;;;21.68;81.30;100963.06;1658507;84;20103;-83
2021/07/17 06:23:34;;;;;;;;;;;;;;;21.71;81.32;100964.67;1625007;86;20118;-83
2021/07/17 06:26:00;;;;;;;;;;;;;;;21.77;81.37;100962.55;1655623;84;20216;-83
2021/07/17 06:28:27;;;;;;;;;;;;;;;21.81;81.31;100971.12;1651911;84;20103;-83
2021/07/17 06:30:53;;;;;;;;;;;;;;;21.86;81.24;100971.67;1680732;84;20169;-83
2021/07/17 06:33:19;;;;;;;;;;;;;;;21.93;81.24;100972.17;1630441;86;20101;-84
2021/07/17 06:35:45;;;;;;;;;;;;;;;22.01;81.34;100969.94;1628576;86;20770;-83
2021/07/17 06:38:11;;;;;;;;;;;;;;;22.11;81.26;100973.78;1634078;86;20242;-83
2021/07/17 06:40:37;;;;;;;;;;;;;;;22.20;81.26;100971.08;1633278;86;20254;-83
2021/07/17 06:43:03;;;;;;;;;;;;;;;22.31;81.30;100966.88;1637359;86;20155;-84
2021/07/17 06:45:29;;;;;;;;;;;;;;;22.41;81.29;100973.27;1639251;86;20135;-83
2021/07/17 06:47:55;;;;;;;;;;;;;;;22.49;81.19;100967.53;1658058;84;21639;-84
2021/07/17 06:50:22;;;;;;;;;;;;;;;22.53;81.02;100969.52;1657034;84;20226;-83
2021/07/17 06:52:48;;;;;;;;;;;;;;;22.59;81.10;100968.68;1667063;84;20200;-83
2021/07/17 06:55:14;;;;;;;;;;;;;;;22.64;81.04;100970.57;1670648;85;20144;-84
2021/07/17 06:57:41;;;;;;;;;;;;;;;22.65;80.93;100970.95;1637897;86;20412;-81
2021/07/17 07:00:10;;;;;;;;;;;;;;;22.68;80.93;100977.83;1642986;86;20447;-82
2021/07/17 07:02:36;;;;;;;;;;;;;;;22.71;80.94;100979.80;1636744;86;20113;-82
2021/07/17 07:05:03;;;;;;;;;;;;;;;22.74;81.02;100970.86;1646206;86;20109;-81
2021/07/17 07:07:29;;;;;;;;;;;;;;;22.78;80.89;100974.57;1641974;86;20119;-81
2021/07/17 07:09:55;;;;;;;;;;;;;;;22.79;80.95;100976.73;1656893;86;20164;-84
2021/07/17 07:12:21;;;;;;;;;;;;;;;22.86;81.02;100974.57;1649031;86;20597;-82
2021/07/17 07:14:47;;;;;;;;;;;;;;;22.90;80.87;100980.00;1640654;86;20219;-84
2021/07/17 07:17:13;;;;;;;;;;;;;;;22.95;80.97;100971.34;1653597;86;20191;-83
2021/07/17 07:19:39;;;;;;;;;;;;;;;23.07;81.03;100971.90;1645800;85;140488;-83
2021/07/17 07:22:05;;;;;;;;;;;;;;;23.15;80.88;100983.30;1623862;87;20175;-83
2021/07/17 07:24:31;;;;;;;;;;;;;;;23.21;80.91;100982.44;1634086;85;20154;-83
2021/07/17 07:26:58;;;;;;;;;;;;;;;23.27;80.88;100985.16;1632966;87;20141;-83
2021/07/17 07:29:25;;;;;;;;;;;;;;;23.29;80.70;100988.55;1627242;87;20437;-83
2021/07/17 07:31:51;;;;;;;;;;;;;;;23.31;80.67;100982.71;1630379;87;20141;-83
2021/07/17 07:34:20;;;;;;;;;;;;;;;23.30;80.66;100981.02;1640804;86;20128;-84
2021/07/17 07:36:46;;;;;;;;;;;;;;;23.36;80.66;100984.59;1630769;86;20099;-83
2021/07/17 07:39:12;;;;;;;;;;;;;;;23.39;80.69;100986.56;1617007;87;20464;-86
2021/07/17 07:41:38;;;;;;;;;;;;;;;23.43;80.46;100981.90;1638697;87;20113;-84
2021/07/17 07:44:05;;;;;;;;;;;;;;;23.47;80.63;100981.23;1635797;87;20208;-84
2021/07/17 07:46:33;;;;;;;;;;;;;;;23.55;80.67;100986.44;1623821;87;20406;-83
2021/07/17 07:48:59;;;;;;;;;;;;;;;23.62;80.54;100984.25;1609289;87;21838;-84
2021/07/17 07:51:26;;;;;;;;;;;;;;;23.68;80.58;100986.02;1615552;87;20172;-80
2021/07/17 07:53:52;;;;;;;;;;;;;;;23.77;80.68;100977.98;1629401;85;20200;-79
2021/07/17 07:56:18;;;;;;;;;;;;;;;23.82;80.56;100979.84;1639816;86;20214;-80
2021/07/17 07:58:44;;;;;;;;;;;;;;;23.87;80.48;100980.39;1626325;86;20152;-80
2021/07/17 08:01:12;;;;;;;;;;;;;;;23.94;80.57;100980.80;1639371;86;20209;-79
2021/07/17 08:03:39;;;;;;;;;;;;;;;24.00;80.39;100985.21;1634269;86;20892;-81
2021/07/17 08:06:05;;;;;;;;;;;;;;;24.06;80.55;100984.80;1632857;86;20216;-78
2021/07/17 08:08:32;;;;;;;;;;;;;;;24.13;80.31;100986.56;1637029;86;20209;-78
2021/07/17 08:10:59;;;;;;;;;;;;;;;24.25;80.55;100984.91;1633166;86;20185;-78
2021/07/17 08:13:26;;;;;;;;;;;;;;;24.40;80.44;100987.88;1620341;87;20202;-79
2021/07/17 08:15:53;;;;;;;;;;;;;;;24.52;80.44;100992.77;1630262;86;20189;-79
2021/07/17 08:18:19;;;;;;;;;;;;;;;24.64;80.34;100991.94;1628361;86;20222;-79
2021/07/17 08:20:45;;;;;;;;;;;;;;;24.73;80.28;100994.80;1640764;85;20577;-79
2021/07/17 08:23:12;;;;;;;;;;;;;;;24.83;80.12;101001.62;1625149;87;20309;-79
2021/07/17 08:25:38;;;;;;;;;;;;;;;24.89;80.09;100995.05;1637203;86;20659;-79
2021/07/17 08:28:05;;;;;;;;;;;;;;;24.99;80.09;100995.63;1634128;86;20673;-79
2021/07/17 08:30:33;;;;;;;;;;;;;;;25.13;80.06;100998.63;1621179;86;20193;-80
2021/07/17 08:32:59;;;;;;;;;;;;;;;25.21;79.75;100998.94;1632322;86;20191;-79
2021/07/17 08:35:25;;;;;;;;;;;;;;;25.25;79.74;100998.23;1631749;86;20839;-80
2021/07/17 08:37:51;;;;;;;;;;;;;;;25.30;79.75;101001.41;1632971;86;20161;-80
2021/07/17 08:40:19;;;;;;;;;;;;;;;25.43;79.83;101002.70;1633728;85;20213;-79
2021/07/17 08:42:47;;;;;;;;;;;;;;;25.50;79.52;101004.77;1620977;86;20147;-79
2021/07/17 08:45:14;;;;;;;;;;;;;;;25.50;79.54;101006.57;1622386;86;20211;-79
2021/07/17 08:47:42;;;;;;;;;;;;;;;25.64;79.84;101003.80;1642535;84;20199;-80
2021/07/17 08:50:11;;;;;;;;;;;;;;;25.77;79.65;101005.92;1634292;86;20309;-80
2021/07/17 08:52:37;;;;;;;;;;;;;;;25.84;79.40;101006.33;1637504;86;20117;-80
2021/07/17 08:55:05;;;;;;;;;;;;;;;25.86;79.23;101005.25;1637231;85;20130;-80
2021/07/17 08:57:35;;;;;;;;;;;;;;;25.85;79.20;101003.56;1634080;86;20095;-80
2021/07/17 09:00:14;;;;;;;;;;;;;;;25.88;79.35;101002.01;1636080;86;20126;-79
2021/07/17 09:02:41;;;;;;;;;;;;;;;25.92;79.34;100998.17;1626563;86;20170;-79
2021/07/17 09:05:10;;;;;;;;;;;;;;;25.93;79.10;100998.55;1640816;86;20110;-79
2021/07/17 09:07:36;;;;;;;;;;;;;;;25.94;79.27;100999.39;1644595;86;20118;-79
2021/07/17 09:10:29;;;;;;;;;;;;;;;25.97;79.32;100998.68;1636098;86;20102;-79
2021/07/17 09:13:16;;;;;;;;;;;;;;;25.97;78.99;101003.13;1633434;86;20138;-79
2021/07/17 09:15:53;;;;;;;;;;;;;;;26.16;79.25;100998.60;1642131;86;20110;-79
2021/07/17 09:18:28;;;;;;;;;;;;;;;26.66;78.84;101002.23;1635567;86;20185;-79
2021/07/17 09:20:57;;;;;;;;;;;;;;;26.73;78.56;100995.13;1638769;86;20131;-79
2021/07/17 09:23:26;;;;;;;;;;;;;;;26.75;78.58;100998.52;1634196;86;20414;-79
2021/07/17 09:25:52;;;;;;;;;;;;;;;26.88;78.38;100996.59;1638236;86;20544;-82
2021/07/17 09:28:30;;;;;;;;;;;;;;;27.12;78.61;100990.69;1640062;86;20113;-79
2021/07/17 09:30:58;;;;;;;;;;;;;;;27.29;78.30;100985.36;1632169;86;20421;-80
2021/07/17 09:33:25;;;;;;;;;;;;;;;27.42;78.49;100990.05;1646022;86;20110;-80
2021/07/17 09:35:52;;;;;;;;;;;;;;;27.46;78.38;100980.87;1622653;86;20596;-80
2021/07/17 09:38:20;;;;;;;;;;;;;;;27.49;78.22;100980.63;1636485;86;20526;-80
2021/07/17 09:40:57;;;;;;;;;;;;;;;27.50;78.06;100980.14;1645712;86;20138;-80
2021/07/17 09:43:32;;;;;;;;;;;;;;;27.47;78.04;100980.38;1625851;86;21234;-80
2021/07/17 09:45:59;;;;;;;;;;;;;;;27.36;77.74;100978.59;1634304;86;20910;-80
2021/07/17 09:48:28;;;;;;;;;;;;;;;27.30;77.77;100987.89;1636056;86;20610;-80
2021/07/17 09:50:55;;;;;;;;;;;;;;;27.35;77.85;100985.72;1640572;86;20090;-80
2021/07/17 09:53:44;;;;;;;;;;;;;;;27.36;77.69;100978.11;1638944;86;20430;-80
2021/07/17 09:56:16;;;;;;;;;;;;;;;27.32;77.59;100981.98;1639421;86;20429;-79
2021/07/17 09:58:42;;;;;;;;;;;;;;;27.27;77.58;100977.52;1645515;86;20110;-79
2021/07/17 10:01:23;;;;;;;;;;;;;;;27.25;77.50;100981.27;1635539;86;20469;-79
2021/07/17 10:03:52;;;;;;;;;;;;;;;27.20;77.41;100978.12;1638040;86;20541;-79
2021/07/17 10:06:40;;;;;;;;;;;;;;;27.14;77.38;100975.48;1638391;86;20572;-79
2021/07/17 10:09:09;;;;;;;;;;;;;;;27.10;77.30;100973.19;1629925;86;20109;-79
2021/07/17 10:11:36;;;;;;;;;;;;;;;27.11;77.41;100968.24;1648107;86;20407;-79
2021/07/17 10:14:23;;;;;;;;;;;;;;;27.10;77.40;100966.55;1641372;85;20252;-79
2021/07/17 10:16:54;;;;;;;;;;;;;;;27.12;77.33;100971.26;1635078;86;20750;-79
2021/07/17 10:19:19;;;;;;;;;;;;;;;27.06;77.08;100967.77;1635129;86;21125;-80
2021/07/17 10:21:46;;;;;;;;;;;;;;;27.07;77.07;100964.98;1640772;85;320383;-80
2021/07/17 10:24:14;;;;;;;;;;;;;;;27.15;77.10;100961.23;1649043;85;20385;-80
2021/07/17 10:26:44;;;;;;;;;;;;;;;27.25;76.85;100957.36;1647761;86;20479;-80
2021/07/17 10:29:12;;;;;;;;;;;;;;;27.36;76.90;100948.05;1636164;86;20438;-80
2021/07/17 10:31:39;;;;;;;;;;;;;;;27.46;76.45;100939.70;1635769;86;20113;-80
2021/07/17 10:34:05;;;;;;;;;;;;;;;27.48;76.17;100949.71;1650343;86;20402;-80
2021/07/17 10:36:33;;;;;;;;;;;;;;;27.47;76.30;100953.82;1639874;85;20555;-80
2021/07/17 10:39:03;;;;;;;;;;;;;;;27.43;76.24;100943.93;1628974;87;20721;-80
2021/07/17 10:41:31;;;;;;;;;;;;;;;27.48;76.35;100943.55;1638087;86;20508;-80
2021/07/17 10:43:57;;;;;;;;;;;;;;;27.55;76.31;100940.27;1648224;85;20194;-80
2021/07/17 10:46:33;;;;;;;;;;;;;;;27.60;76.32;100935.91;1637830;86;20672;-80
2021/07/17 10:49:00;;;;;;;;;;;;;;;27.63;76.14;100934.33;1631604;85;20454;-80
2021/07/17 10:51:33;;;;;;;;;;;;;;;27.68;76.04;100926.34;1649702;85;20755;-80
2021/07/17 10:54:04;;;;;;;;;;;;;;;27.78;76.05;100926.91;1636810;85;20534;-80
2021/07/17 10:56:35;;;;;;;;;;;;;;;27.87;75.78;100928.80;1623915;86;20585;-80
2021/07/17 10:59:12;;;;;;;;;;;;;;;27.88;75.59;100927.34;1628267;87;20805;-80
2021/07/17 11:02:01;;;;;;;;;;;;;;;27.93;75.63;100928.29;1636024;86;20558;-80
2021/07/17 11:04:38;;;;;;;;;;;;;;;27.96;75.38;100927.55;1634327;86;20138;-80
2021/07/17 11:07:22;;;;;;;;;;;;;;;27.93;75.45;100926.48;1632070;86;20431;-80
2021/07/17 11:10:04;;;;;;;;;;;;;;;27.91;75.21;100924.43;1627012;86;20411;-80
2021/07/17 11:12:35;;;;;;;;;;;;;;;27.90;75.26;100929.39;1609741;87;20440;-80
2021/07/17 11:15:14;;;;;;;;;;;;;;;27.96;75.33;100921.39;1610447;87;20670;-80
2021/07/17 11:17:42;;;;;;;;;;;;;;;28.03;75.40;100921.72;1590455;88;20557;-80
2021/07/17 11:20:25;;;;;;;;;;;;;;;28.13;75.26;100922.11;1620185;86;20103;-80
2021/07/17 11:23:13;;;;;;;;;;;;;;;28.09;75.30;100926.48;1634365;86;20100;-80
2021/07/17 11:25:43;;;;;;;;;;;;;;;28.09;75.36;100919.35;1633048;86;20395;-80
2021/07/17 11:28:09;;;;;;;;;;;;;;;28.09;75.25;100920.68;1596527;88;20430;-80
2021/07/17 11:30:36;;;;;;;;;;;;;;;28.01;75.13;100909.88;1605441;88;20262;-80
2021/07/17 11:33:05;;;;;;;;;;;;;;;27.95;75.13;100909.91;1633209;86;20167;-80
2021/07/17 11:35:33;;;;;;;;;;;;;;;27.95;75.00;100904.59;1638918;86;20588;-80
2021/07/17 11:37:59;;;;;;;;;;;;;;;27.94;74.88;100896.27;1629602;86;20173;-80
2021/07/17 11:40:25;;;;;;;;;;;;;;;27.94;74.93;100892.27;1631895;86;20127;-80
2021/07/17 11:42:52;;;;;;;;;;;;;;;27.98;74.99;100890.20;1639008;86;20511;-80
2021/07/17 11:45:18;;;;;;;;;;;;;;;28.01;74.53;100895.26;1592549;88;20559;-80
2021/07/17 11:47:44;;;;;;;;;;;;;;;28.04;74.61;100891.02;1605569;87;21043;-80
2021/07/17 11:50:11;;;;;;;;;;;;;;;28.09;74.45;100887.93;1628593;86;20704;-80
2021/07/17 11:52:38;;;;;;;;;;;;;;;28.17;74.59;100887.64;1623688;86;20163;-80
2021/07/17 11:55:07;;;;;;;;;;;;;;;28.25;74.30;100889.19;1642845;85;20107;-79
2021/07/17 11:57:34;;;;;;;;;;;;;;;28.34;74.41;100888.89;1653591;85;20094;-79
2021/07/17 12:00:14;;;;;;;;;;;;;;;28.33;74.22;100884.05;1645446;85;20145;-79
2021/07/17 12:02:40;;;;;;;;;;;;;;;28.34;74.05;100891.05;1602215;88;20237;-79
2021/07/17 12:05:17;;;;;;;;;;;;;;;28.32;73.90;100905.46;1625382;86;20226;-80
2021/07/17 12:07:42;;;;;;;;;;;;;;;27.58;76.38;100916.56;1627274;86;20123;-81
2021/07/17 12:10:13;;;;;;;;;;;;;;;26.27;75.55;100885.48;1631052;86;20198;-82
2021/07/17 12:12:46;;;;;;;;;;;;;;;25.44;78.41;100893.19;1651626;85;20501;-82
2021/07/17 12:15:23;;;;;;;;;;;;;;;25.05;78.19;100892.48;1648091;85;20120;-82
2021/07/17 12:17:52;;;;;;;;;;;;;;;24.80;78.01;100892.53;1645078;85;20122;-82
2021/07/17 12:20:21;;;;;;;;;;;;;;;24.72;78.48;100899.69;1635708;85;20342;-82
2021/07/17 12:22:53;;;;;;;;;;;;;;;24.56;78.30;100893.30;1656307;85;20192;-81
2021/07/17 12:25:24;;;;;;;;;;;;;;;24.41;78.66;100887.31;1636909;85;20200;-81
2021/07/17 12:28:00;;;;;;;;;;;;;;;24.37;78.79;100879.23;1656197;85;20099;-81
2021/07/17 12:30:29;;;;;;;;;;;;;;;24.31;78.86;100872.20;1647191;84;20172;-81
2021/07/17 12:33:28;;;;;;;;;;;;;;;24.12;78.70;100873.89;1650163;85;20135;-81
2021/07/17 12:36:15;;;;;;;;;;;;;;;24.01;79.03;100875.10;1653812;85;20128;-81
2021/07/17 12:38:56;;;;;;;;;;;;;;;23.98;79.25;100879.27;1607910;86;20639;-84